Time;durP1;ratioP1;P1;durP2;ratioP2;P2;SDS_P1;SDS_P2;PMS_P1;PMS_P2;Temp;Humidity;BMP_temperature;BMP_pressure;BME280_temperature;BME280_humidity;BME280_pressure;Samples;Min_cycle;Max_cycle;Signal;HPM_P1;HPM_P2
2023/10/10 00:00:24;;;;;;;5.90;4.40;;;;;;;6.75;100.00;97590.77;110091;1244;72187;-60
2023/10/10 00:03:18;;;;;;;5.70;4.10;;;;;;;6.77;100.00;97584.97;110090;1244;69180;-60
2023/10/10 00:05:48;;;;;;;5.40;3.70;;;;;;;6.78;100.00;97587.33;110084;1244;69328;-60
2023/10/10 00:08:20;;;;;;;6.60;4.10;;;;;;;6.78;100.00;97587.65;110099;1244;60502;-61
2023/10/10 00:10:52;;;;;;;5.40;3.70;;;;;;;6.78;100.00;97590.75;110115;1243;60466;-61
2023/10/10 00:13:25;;;;;;;5.50;3.70;;;;;;;6.77;100.00;97592.36;110134;1243;71501;-61
2023/10/10 00:16:02;;;;;;;4.40;3.30;;;;;;;6.76;100.00;97591.59;110152;1246;69296;-61
2023/10/10 00:18:35;;;;;;;8.00;3.80;;;;;;;6.74;100.00;97593.79;110161;1246;68520;-59
2023/10/10 00:21:20;;;;;;;4.70;3.40;;;;;;;6.73;100.00;97599.02;110156;1245;60558;-58
2023/10/10 00:23:54;;;;;;;6.80;3.90;;;;;;;6.72;100.00;97595.09;110136;1244;60476;-61
2023/10/10 00:26:26;;;;;;;6.60;3.90;;;;;;;6.74;99.63;97583.92;110165;1241;72191;-59
2023/10/10 00:28:57;;;;;;;5.70;3.70;;;;;;;6.73;97.95;97583.26;110119;1244;68731;-59
2023/10/10 00:31:31;;;;;;;5.10;2.90;;;;;;;6.72;99.46;97578.33;110110;1243;69266;-59
2023/10/10 00:34:07;;;;;;;5.50;3.20;;;;;;;6.72;100.00;97579.70;110172;1246;60540;-59
2023/10/10 00:36:41;;;;;;;5.20;3.30;;;;;;;6.74;100.00;97579.93;110166;1244;60476;-59
2023/10/10 00:39:23;;;;;;;4.60;3.00;;;;;;;6.75;100.00;97579.51;110172;1244;72233;-62
2023/10/10 00:41:56;;;;;;;5.40;3.00;;;;;;;6.76;100.00;97582.21;110107;1244;68227;-61
2023/10/10 00:44:31;;;;;;;5.30;3.60;;;;;;;6.77;100.00;97580.09;110120;1242;68566;-59
2023/10/10 00:47:03;;;;;;;6.60;3.90;;;;;;;6.76;100.00;97576.88;110122;1246;60495;-60
2023/10/10 00:49:37;;;;;;;5.20;3.30;;;;;;;6.75;100.00;97576.22;110170;1248;60479;-60
2023/10/10 00:52:16;;;;;;;4.10;3.00;;;;;;;6.75;100.00;97577.44;110139;1241;71782;-62
2023/10/10 00:54:52;;;;;;;4.50;3.30;;;;;;;6.75;100.00;97577.77;110149;1244;69026;-59
2023/10/10 00:57:27;;;;;;;6.70;3.50;;;;;;;6.75;100.00;97578.97;110158;1245;68406;-59
2023/10/10 01:00:00;;;;;;;5.80;3.80;;;;;;;6.75;100.00;97579.33;110156;1245;60499;-59
2023/10/10 01:02:34;;;;;;;5.70;3.80;;;;;;;6.75;100.00;97575.71;110127;1245;60464;-59
2023/10/10 01:05:13;;;;;;;5.00;2.90;;;;;;;6.74;100.00;97573.30;110108;1244;72168;-59
2023/10/10 01:07:48;;;;;;;;;;;;;;;6.75;100.00;97570.85;110100;1244;68340;-60
2023/10/10 01:10:23;;;;;;;6.30;3.90;;;;;;;6.73;100.00;97565.40;110146;1246;69290;-60
2023/10/10 01:12:58;;;;;;;5.20;3.40;;;;;;;6.73;100.00;97557.48;110116;1241;60527;-58
2023/10/10 01:15:36;;;;;;;5.00;3.40;;;;;;;6.70;100.00;97553.97;110165;1244;60506;-59
2023/10/10 01:18:17;;;;;;;5.10;3.40;;;;;;;6.67;99.79;97550.70;110120;1241;71272;-60
2023/10/10 01:20:49;;;;;;;6.10;4.00;;;;;;;6.63;100.00;97555.75;110132;1245;68485;-59
2023/10/10 01:23:27;;;;;;;4.90;3.50;;;;;;;6.60;100.00;97560.25;110142;1245;68545;-59
2023/10/10 01:26:09;;;;;;;5.80;3.60;;;;;;;6.57;100.00;97561.27;110091;1242;60519;-60
2023/10/10 01:28:41;;;;;;;6.00;3.40;;;;;;;6.52;100.00;97566.04;110106;1246;60566;-60
2023/10/10 01:31:17;;;;;;;4.90;3.00;;;;;;;6.48;100.00;97561.74;110104;1246;71622;-61
2023/10/10 01:34:23;;;;;;;4.70;3.20;;;;;;;6.46;100.00;97558.39;110092;1242;69257;-59
2023/10/10 01:36:57;;;;;;;4.30;2.90;;;;;;;6.45;100.00;97557.91;110098;1244;69226;-59
2023/10/10 01:39:42;;;;;;;5.60;3.30;;;;;;;6.44;100.00;97555.40;110132;1241;60545;-59
2023/10/10 01:42:17;;;;;;;4.40;3.00;;;;;;;6.43;100.00;97558.05;110134;1244;60535;-58
2023/10/10 01:44:51;;;;;;;4.80;2.80;;;;;;;6.41;100.00;97562.81;110131;1241;72598;-61
2023/10/10 01:47:27;;;;;;;4.10;3.00;;;;;;;6.41;100.00;97561.94;110101;1244;69286;-59
2023/10/10 01:49:59;;;;;;;4.30;3.30;;;;;;;6.41;100.00;97564.23;110106;1244;69320;-59
2023/10/10 01:52:30;;;;;;;4.30;2.90;;;;;;;6.41;100.00;97571.98;110092;1247;60486;-59
2023/10/10 01:55:01;;;;;;;4.10;2.80;;;;;;;6.43;100.00;97572.95;110101;1245;60463;-59
2023/10/10 01:57:34;;;;;;;4.30;2.70;;;;;;;6.43;100.00;97575.86;110134;1244;71418;-59
2023/10/10 02:00:20;;;;;;;4.70;3.20;;;;;;;6.44;100.00;97574.30;110133;1246;69248;-59
2023/10/10 02:02:56;;;;;;;5.90;3.90;;;;;;;6.43;100.00;97574.13;110147;1246;68442;-59
2023/10/10 02:08:21;;;;;;;4.80;3.10;;;;;;;6.41;100.00;97582.02;110187;1246;60524;-60
2023/10/10 02:10:55;;;;;;;4.60;3.00;;;;;;;6.43;100.00;97585.77;110100;1244;72179;-60
2023/10/10 02:13:33;;;;;;;4.00;2.70;;;;;;;6.42;100.00;97583.19;110103;1243;69264;-59
2023/10/10 02:16:11;;;;;;;4.10;2.80;;;;;;;6.42;100.00;97580.61;110089;1242;69298;-59
2023/10/10 02:18:51;;;;;;;4.20;3.20;;;;;;;6.41;100.00;97578.60;110109;1244;60507;-60
2023/10/10 02:21:32;;;;;;;4.70;3.70;;;;;;;6.38;100.00;97584.63;110170;1241;60625;-59
2023/10/10 02:24:25;;;;;;;7.30;4.50;;;;;;;6.36;100.00;97581.25;110133;1246;72056;-59
2023/10/10 02:26:56;;;;;;;7.10;5.00;;;;;;;6.33;100.00;97585.55;110142;1251;69194;-59
2023/10/10 02:32:13;;;;;;;9.10;6.60;;;;;;;6.28;100.00;97594.17;110130;1244;60480;-59
2023/10/10 02:35:00;;;;;;;10.60;6.20;;;;;;;6.24;100.00;97595.59;110131;1245;60558;-59
2023/10/10 02:37:44;;;;;;;11.70;8.30;;;;;;;6.19;100.00;97598.78;110204;1242;71466;-59
2023/10/10 02:40:15;;;;;;;11.40;8.10;;;;;;;6.15;100.00;97595.88;110200;1244;69089;-60
2023/10/10 02:42:50;;;;;;;10.70;6.60;;;;;;;6.13;100.00;97592.14;110154;1244;69335;-59
2023/10/10 02:45:28;;;;;;;11.50;7.60;;;;;;;6.12;100.00;97598.58;110139;1243;60504;-59
2023/10/10 02:48:06;;;;;;;13.20;8.30;;;;;;;6.11;100.00;97595.36;110177;1245;60484;-59
2023/10/10 02:50:41;;;;;;;9.60;7.40;;;;;;;6.10;100.00;97599.73;110332;1245;71620;-59
2023/10/10 02:53:14;;;;;;;11.10;7.80;;;;;;;6.10;100.00;97596.13;110232;1246;69248;-61
2023/10/10 02:55:52;;;;;;;9.50;7.40;;;;;;;6.10;100.00;97597.33;110276;1245;69151;-60
2023/10/10 02:58:28;;;;;;;9.40;7.10;;;;;;;6.10;100.00;97604.59;110143;1246;60502;-59
2023/10/10 03:00:59;;;;;;;10.00;7.00;;;;;;;6.11;100.00;97604.70;110140;1242;60483;-59
2023/10/10 03:03:30;;;;;;;7.00;5.40;;;;;;;6.13;100.00;97610.30;110166;1251;71418;-60
2023/10/10 03:06:06;;;;;;;8.90;5.70;;;;;;;6.16;100.00;97611.42;110197;1243;69543;-60
2023/10/10 03:08:51;;;;;;;9.50;6.20;;;;;;;6.18;100.00;97615.97;110154;1245;69293;-59
2023/10/10 03:11:36;;;;;;;7.80;5.60;;;;;;;6.19;100.00;97619.20;110145;1247;60550;-60
2023/10/10 03:14:25;;;;;;;8.30;6.20;;;;;;;6.21;100.00;97623.61;110112;1244;60447;-60
2023/10/10 03:17:19;;;;;;;10.10;6.00;;;;;;;6.23;100.00;97623.50;110117;1246;72026;-59
2023/10/10 03:20:02;;;;;;;8.40;5.90;;;;;;;6.27;100.00;97622.61;110133;1245;68370;-58
2023/10/10 03:22:52;;;;;;;9.30;6.30;;;;;;;6.28;100.00;97619.77;110156;1243;68692;-61
2023/10/10 03:25:24;;;;;;;9.10;6.60;;;;;;;6.30;100.00;97617.77;110143;1245;60585;-59
2023/10/10 03:27:55;;;;;;;8.20;5.90;;;;;;;6.31;100.00;97620.96;110155;1243;60488;-59
2023/10/10 03:31:35;;;;;;;7.40;5.50;;;;;;;6.33;100.00;97621.73;110121;1245;72250;-59
2023/10/10 05:25:42;;;;;;;6.40;4.80;;;;;;;6.63;100.00;97696.01;110087;1244;67640;-58
2023/10/10 05:28:11;;;;;;;7.50;4.90;;;;;;;6.66;100.00;97691.39;110094;1241;69285;-59
2023/10/10 05:30:44;;;;;;;6.50;4.70;;;;;;;6.67;100.00;97687.70;110136;1244;60609;-59
2023/10/10 05:33:19;;;;;;;6.40;4.60;;;;;;;6.69;100.00;97693.63;110154;1246;60436;-59
2023/10/10 05:35:57;;;;;;;4.70;3.80;;;;;;;6.72;100.00;97696.43;110156;1245;72305;-60
2023/10/10 05:38:27;;;;;;;5.70;4.30;;;;;;;6.75;100.00;97699.21;110147;1244;69433;-60
2023/10/10 05:40:59;;;;;;;4.90;3.50;;;;;;;6.78;99.97;97700.22;110127;1241;69307;-60
2023/10/10 05:43:33;;;;;;;5.90;3.60;;;;;;;6.83;100.00;97710.73;110126;1245;60532;-60
2023/10/10 05:46:06;;;;;;;5.90;4.20;;;;;;;6.90;100.00;97715.57;110147;1242;60544;-60
2023/10/10 05:48:37;;;;;;;7.40;5.30;;;;;;;6.96;100.00;97722.52;110179;1244;72635;-60
2023/10/10 05:51:09;;;;;;;5.90;3.80;;;;;;;7.03;100.00;97726.30;110157;1244;70065;-60
2023/10/10 05:53:40;;;;;;;8.00;6.00;;;;;;;7.09;100.00;97729.41;110092;1241;68668;-60
2023/10/10 05:56:18;;;;;;;6.40;5.30;;;;;;;7.13;100.00;97733.20;110172;1244;60569;-60
2023/10/10 05:58:48;;;;;;;8.40;5.90;;;;;;;7.19;100.00;97738.81;110096;1242;60437;-60
2023/10/10 06:01:18;;;;;;;8.00;5.50;;;;;;;7.23;100.00;97743.94;110110;1241;71818;-60
2023/10/10 06:03:47;;;;;;;10.90;5.90;;;;;;;7.24;100.00;97749.25;110115;1244;69226;-60
2023/10/10 06:06:18;;;;;;;5.50;4.40;;;;;;;7.22;100.00;97753.87;110137;1245;69313;-60
2023/10/10 06:08:53;;;;;;;5.90;4.20;;;;;;;7.29;100.00;97757.68;110139;1244;60535;-60
2023/10/10 06:11:24;;;;;;;5.40;4.50;;;;;;;7.36;100.00;97759.69;110140;1244;60498;-60
2023/10/10 06:13:53;;;;;;;7.00;4.50;;;;;;;7.43;100.00;97758.80;110144;1244;72206;-60
2023/10/10 06:16:23;;;;;;;9.30;6.10;;;;;;;7.45;100.00;97763.89;110096;1241;70027;-59
2023/10/10 06:18:52;;;;;;;;;;;;;;;7.51;100.00;97761.66;110109;1241;70047;-59
2023/10/10 06:21:22;;;;;;;7.80;5.70;;;;;;;7.57;100.00;97762.36;110095;1241;60475;-59
2023/10/10 06:23:51;;;;;;;9.20;5.30;;;;;;;7.65;100.00;97769.20;110087;1241;60550;-60
2023/10/10 06:26:21;;;;;;;10.10;6.10;;;;;;;7.76;100.00;97770.48;110124;1243;72766;-60
2023/10/10 06:28:53;;;;;;;;;;;;;;;7.87;100.00;97768.14;110160;1241;69206;-60
2023/10/10 06:31:33;;;;;;;10.70;6.70;;;;;;;7.94;100.00;97769.68;110132;1245;69269;-60
2023/10/10 06:34:19;;;;;;;7.70;5.70;;;;;;;8.02;100.00;97772.33;110124;1241;60551;-60
2023/10/10 06:36:51;;;;;;;10.20;7.40;;;;;;;8.16;100.00;97767.55;110164;1244;60523;-60
2023/10/10 06:39:21;;;;;;;8.70;6.60;;;;;;;8.34;100.00;97774.69;110153;1245;72773;-60
2023/10/10 06:41:50;;;;;;;11.30;7.30;;;;;;;8.49;100.00;97775.56;110163;1243;69232;-60
2023/10/10 06:44:34;;;;;;;9.80;7.00;;;;;;;8.54;98.98;97774.04;110116;1244;68498;-60
2023/10/10 06:47:08;;;;;;;9.80;7.20;;;;;;;8.64;97.44;97772.27;110132;1241;60521;-60
2023/10/10 06:49:54;;;;;;;9.10;7.30;;;;;;;8.77;98.52;97773.25;110115;1241;60559;-60
2023/10/10 06:52:29;;;;;;;6.70;4.90;;;;;;;8.83;98.83;97774.61;110115;1245;72058;-60
2023/10/10 06:55:05;;;;;;;8.20;5.40;;;;;;;8.93;98.37;97778.71;110100;1243;69681;-60
2023/10/10 06:57:35;;;;;;;9.00;6.30;;;;;;;9.02;97.86;97773.11;110108;1244;68158;-60
2023/10/10 07:02:51;;;;;;;10.50;6.70;;;;;;;9.27;95.94;97780.09;110165;1244;60502;-61
2023/10/10 07:05:27;;;;;;;8.20;6.00;;;;;;;9.37;94.70;97780.01;110080;1243;72227;-61
2023/10/10 07:07:59;;;;;;;10.80;6.50;;;;;;;9.47;93.32;97780.63;110154;1241;68606;-61
2023/10/10 07:10:36;;;;;;;7.00;5.30;;;;;;;9.61;92.41;97781.47;110171;1250;69761;-61
2023/10/10 07:13:11;;;;;;;6.20;5.00;;;;;;;9.76;92.13;97781.21;110199;1245;60511;-61
2023/10/10 07:15:42;;;;;;;5.20;4.40;;;;;;;9.93;93.06;97782.92;110185;1244;60508;-62
2023/10/10 07:18:15;;;;;;;8.50;5.10;;;;;;;10.07;90.58;97788.11;110232;1241;71541;-60
2023/10/10 07:23:57;;;;;;;6.40;4.30;;;;;;;10.23;87.43;97793.33;110130;1244;69131;-60
2023/10/10 07:26:31;;;;;;;6.50;3.90;;;;;;;10.27;85.15;97789.58;110133;1241;60538;-60
2023/10/10 07:29:25;;;;;;;6.00;4.20;;;;;;;10.41;85.73;97797.05;110177;1244;60497;-60
2023/10/10 07:31:53;;;;;;;5.60;3.70;;;;;;;10.54;83.74;97797.40;110152;1245;72122;-60
2023/10/10 07:34:34;;;;;;;5.60;3.40;;;;;;;10.66;83.63;97799.75;110136;1245;69150;-60
2023/10/10 07:37:08;;;;;;;5.20;3.60;;;;;;;10.78;81.10;97799.47;110094;1249;69856;-60
2023/10/10 07:42:50;;;;;;;4.40;2.80;;;;;;;10.58;76.87;97799.76;109759;1248;60503;-60
2023/10/10 07:45:33;;;;;;;5.10;3.00;;;;;;;10.51;75.75;97800.20;109709;1248;72264;-60
2023/10/10 07:50:46;;;;;;;6.20;3.40;;;;;;;10.54;76.90;97801.61;110058;1245;69806;-60
2023/10/10 07:53:17;;;;;;;4.20;3.00;;;;;;;10.45;76.66;97801.50;110088;1244;60452;-60
2023/10/10 07:56:00;;;;;;;3.50;2.60;;;;;;;10.47;75.01;97803.80;110121;1246;60553;-60
2023/10/10 07:58:49;;;;;;;3.40;2.70;;;;;;;10.54;73.10;97802.14;110137;1242;72164;-59
2023/10/10 08:01:23;;;;;;;3.70;2.40;;;;;;;10.66;73.33;97804.27;110120;1241;68494;-59
2023/10/10 08:03:52;;;;;;;5.00;3.20;;;;;;;10.75;74.50;97802.81;110123;1246;69926;-58
2023/10/10 08:06:21;;;;;;;4.70;3.20;;;;;;;10.81;74.70;97799.64;110114;1244;60522;-60
2023/10/10 08:11:40;;;;;;;5.60;4.00;;;;;;;10.89;74.15;97805.48;110129;1244;71496;-61
2023/10/10 08:14:09;;;;;;;7.90;4.80;;;;;;;10.88;73.71;97806.26;110142;1244;69813;-59
2023/10/10 08:16:43;;;;;;;5.70;4.10;;;;;;;10.84;73.37;97805.16;110172;1241;68510;-59
2023/10/10 08:19:15;;;;;;;10.10;6.20;;;;;;;11.03;73.85;97803.89;110184;1244;60496;-59
2023/10/10 08:21:53;;;;;;;7.40;5.30;;;;;;;11.06;74.49;97804.52;110144;1244;60480;-59
2023/10/10 08:24:22;;;;;;;7.30;5.50;;;;;;;11.17;74.60;97802.17;110130;1244;70317;-58
2023/10/10 08:26:52;;;;;;;7.00;5.50;;;;;;;11.29;73.96;97806.27;110154;1244;67492;-59
2023/10/10 08:29:25;;;;;;;;;;;;;;;11.38;73.45;97813.32;110167;1243;69256;-60
2023/10/10 08:31:56;;;;;;;8.70;6.10;;;;;;;11.57;72.73;97815.85;110132;1244;60532;-59
2023/10/10 08:34:26;;;;;;;9.30;5.50;;;;;;;11.69;70.54;97820.73;110167;1241;60543;-59
2023/10/10 08:37:03;;;;;;;5.80;4.40;;;;;;;11.76;71.90;97824.48;110143;1244;72211;-60
2023/10/10 08:39:39;;;;;;;6.30;4.10;;;;;;;11.94;68.00;97824.39;110132;1243;68576;-61
2023/10/10 08:42:10;;;;;;;8.90;5.40;;;;;;;12.01;66.93;97827.16;110109;1244;69217;-60
2023/10/10 08:44:41;;;;;;;7.90;4.80;;;;;;;12.18;66.56;97825.98;110148;1248;60489;-60
2023/10/10 08:47:16;;;;;;;;;;;;;;;12.41;67.75;97826.97;110155;1241;60553;-59
2023/10/10 08:49:47;;;;;;;8.00;6.40;;;;;;;12.66;66.29;97824.95;110172;1245;72649;-59
2023/10/10 08:52:19;;;;;;;8.50;6.90;;;;;;;12.81;64.37;97823.41;110157;1241;69890;-59
2023/10/10 08:54:51;;;;;;;7.40;6.20;;;;;;;12.85;63.38;97821.88;110106;1245;69865;-59
2023/10/10 08:57:27;;;;;;;7.60;5.90;;;;;;;12.95;63.73;97820.95;110112;1244;60545;-60
2023/10/10 08:59:57;;;;;;;8.80;7.00;;;;;;;13.11;60.77;97822.91;110151;1244;60498;-60
2023/10/10 09:02:33;;;;;;;7.80;5.80;;;;;;;13.08;60.74;97824.52;110145;1244;72038;-61
2023/10/10 09:05:12;;;;;;;7.40;4.70;;;;;;;13.07;58.37;97825.11;110158;1245;69187;-60
2023/10/10 09:07:46;;;;;;;5.10;3.60;;;;;;;13.78;58.18;97825.41;109684;1241;537408;-60
2023/10/10 09:10:15;;;;;;;6.00;4.40;;;;;;;14.37;57.52;97830.97;110109;1243;60563;-59
2023/10/10 09:12:55;;;;;;;6.00;4.20;;;;;;;14.79;52.14;97828.23;110103;1244;60465;-61
2023/10/10 09:15:25;;;;;;;7.30;5.40;;;;;;;14.94;50.41;97826.30;110118;1241;72716;-59
2023/10/10 09:18:31;;;;;;;6.20;4.30;;;;;;;15.09;51.69;97829.23;110104;1244;69265;-60
2023/10/10 09:21:21;;;;;;;7.10;4.80;;;;;;;15.22;49.04;97828.87;109561;1251;69211;-60
2023/10/10 09:24:07;;;;;;;4.80;3.60;;;;;;;16.17;51.73;97830.60;110143;1243;60550;-59
2023/10/10 09:26:37;;;;;;;4.50;3.60;;;;;;;17.37;47.18;97824.05;110118;1241;60493;-59
2023/10/10 09:29:15;;;;;;;4.80;2.80;;;;;;;18.21;46.96;97824.87;110140;1243;72744;-59
2023/10/10 09:31:47;;;;;;;4.30;3.40;;;;;;;19.17;43.64;97822.23;110176;1244;69369;-62
2023/10/10 09:34:22;;;;;;;4.90;3.40;;;;;;;19.52;41.64;97821.23;110119;1244;69833;-60
2023/10/10 09:36:56;;;;;;;5.50;3.80;;;;;;;19.38;42.10;97823.30;110094;1245;60501;-60
2023/10/10 09:39:36;;;;;;;4.80;3.20;;;;;;;19.14;40.78;97823.80;110118;1244;60461;-60
2023/10/10 09:42:28;;;;;;;4.70;3.50;;;;;;;19.05;42.31;97829.04;110159;1248;72794;-60
2023/10/10 09:47:55;;;;;;;5.00;3.50;;;;;;;19.29;40.90;97826.66;110160;1245;68329;-60
2023/10/10 09:50:45;;;;;;;4.50;3.80;;;;;;;18.39;42.25;97823.95;110087;1245;60519;-60
2023/10/10 09:53:21;;;;;;;5.40;3.90;;;;;;;18.59;43.80;97823.09;110153;1243;60535;-60
2023/10/10 09:55:54;;;;;;;8.30;5.30;;;;;;;18.34;43.25;97819.53;110138;1244;72751;-60
2023/10/10 09:58:25;;;;;;;4.80;3.80;;;;;;;17.87;42.51;97815.76;110104;1241;68490;-61
2023/10/10 10:01:12;;;;;;;7.20;4.90;;;;;;;18.53;43.62;97811.98;110097;1244;69800;-60
2023/10/10 10:03:59;;;;;;;5.00;3.60;;;;;;;19.31;41.45;97809.99;110122;1243;60485;-59
2023/10/10 10:06:54;;;;;;;4.80;3.20;;;;;;;18.93;39.80;97811.69;110146;1244;60449;-60
2023/10/10 10:10:09;;;;;;;6.80;4.30;;;;;;;19.38;39.85;97805.08;110171;1248;72799;-60
2023/10/10 10:12:55;;;;;;;4.10;2.80;;;;;;;18.45;39.16;97806.42;110168;1241;69322;-58
2023/10/10 10:15:51;;;;;;;3.10;2.10;;;;;;;18.96;39.44;97804.20;110157;1244;69984;-61
2023/10/10 10:18:27;;;;;;;3.30;1.80;;;;;;;19.18;39.81;97803.09;109884;1241;60550;-60
2023/10/10 10:23:47;;;;;;;4.10;1.90;;;;;;;19.45;39.33;97800.83;110126;1243;72695;-59
2023/10/10 10:29:29;;;;;;;2.80;1.70;;;;;;;18.89;39.93;97798.36;110066;1241;69686;-60
2023/10/10 10:32:00;;;;;;;1.90;1.30;;;;;;;18.28;39.18;97798.77;110066;1244;60581;-59
2023/10/10 10:34:32;;;;;;;2.50;1.60;;;;;;;18.08;40.83;97796.18;110115;1244;60560;-59
2023/10/10 10:37:20;;;;;;;2.90;1.60;;;;;;;17.93;40.28;97792.80;110142;1244;72761;-59
2023/10/10 10:42:46;;;;;;;3.40;2.10;;;;;;;17.93;41.10;97792.33;110098;1241;69198;-59
2023/10/10 10:45:36;;;;;;;4.20;2.10;;;;;;;17.63;41.04;97786.58;110087;1241;60896;-60
2023/10/10 10:48:08;;;;;;;3.70;1.70;;;;;;;17.30;41.67;97787.05;110103;1243;60482;-59
2023/10/10 10:50:43;;;;;;;3.50;1.90;;;;;;;17.22;41.63;97780.76;110157;1244;72743;-59
2023/10/10 10:53:30;;;;;;;3.80;2.50;;;;;;;16.89;41.57;97783.84;110126;1243;67843;-60
2023/10/10 11:01:26;;;;;;;2.70;1.70;;;;;;;16.55;42.56;97783.71;110132;1245;60490;-60
2023/10/10 11:03:56;;;;;;;3.70;1.60;;;;;;;16.67;43.35;97778.46;110126;1241;72145;-60
2023/10/10 11:06:25;;;;;;;3.90;1.80;;;;;;;16.62;42.43;97778.89;110076;1244;69829;-59
2023/10/10 11:09:09;;;;;;;2.70;1.50;;;;;;;16.63;43.25;97778.27;110091;1244;69429;-59
2023/10/10 11:11:40;;;;;;;2.20;1.60;;;;;;;16.81;42.51;97775.79;109778;1243;60526;-60
2023/10/10 11:14:18;;;;;;;2.60;1.30;;;;;;;17.12;42.33;97773.95;110064;1243;60456;-60
2023/10/10 11:16:56;;;;;;;3.00;1.90;;;;;;;17.40;42.33;97772.02;110106;1241;72778;-61
2023/10/10 11:22:05;;;;;;;2.00;1.30;;;;;;;17.32;42.59;97778.24;110057;1241;69961;-59
2023/10/10 11:24:36;;;;;;;2.70;1.60;;;;;;;17.95;41.85;97779.90;110089;1241;60919;-59
2023/10/10 11:29:44;;;;;;;2.80;1.80;;;;;;;19.67;40.73;97770.11;110068;1251;71984;-59
2023/10/10 11:32:23;;;;;;;2.90;1.70;;;;;;;20.46;38.22;97776.77;110093;1241;69654;-61
2023/10/10 11:35:17;;;;;;;3.40;1.90;;;;;;;20.86;36.03;97775.59;110100;1244;68721;-59
2023/10/10 11:37:59;;;;;;;3.20;1.90;;;;;;;21.30;35.91;97775.15;110058;1244;60497;-60
2023/10/10 11:43:04;;;;;;;2.80;1.70;;;;;;;20.04;35.43;97782.86;110083;1243;72160;-59
2023/10/10 11:45:58;;;;;;;3.80;2.00;;;;;;;20.20;36.89;97784.61;110058;1243;69066;-59
2023/10/10 11:48:26;;;;;;;2.40;1.30;;;;;;;20.12;36.99;97784.08;110050;1244;68421;-58
2023/10/10 11:50:59;;;;;;;2.50;1.70;;;;;;;19.45;37.28;97781.14;110090;1243;60603;-59
2023/10/10 11:53:29;;;;;;;3.00;1.80;;;;;;;18.36;38.31;97779.83;110081;1241;60566;-59
2023/10/10 11:56:04;;;;;;;3.80;1.60;;;;;;;18.56;38.48;97782.08;110073;1244;72292;-60
2023/10/10 11:58:36;;;;;;;4.00;1.90;;;;;;;19.24;37.18;97779.65;110109;1241;69292;-61
2023/10/10 12:01:06;;;;;;;2.80;1.60;;;;;;;19.95;37.04;97781.27;110127;1244;69127;-60
2023/10/10 12:06:16;;;;;;;2.50;1.70;;;;;;;20.06;35.15;97775.14;110141;1244;60487;-60
2023/10/10 12:08:50;;;;;;;3.20;2.10;;;;;;;20.15;35.29;97780.09;109845;1244;72726;-61
2023/10/10 12:11:20;;;;;;;2.80;1.60;;;;;;;19.75;35.21;97778.58;110148;1241;68334;-61
2023/10/10 12:13:52;;;;;;;2.80;1.60;;;;;;;19.55;35.92;97776.95;110179;1244;69943;-60
2023/10/10 12:16:25;;;;;;;3.10;1.90;;;;;;;19.87;35.54;97777.84;110129;1244;60549;-61
2023/10/10 12:18:54;;;;;;;3.10;1.90;;;;;;;20.00;34.92;97777.79;110089;1244;60484;-61
2023/10/10 12:21:25;;;;;;;;;;;;;;;20.39;35.05;97781.16;110100;1241;73444;-60
2023/10/10 12:23:56;;;;;;;3.90;1.40;;;;;;;21.71;34.03;97779.84;110101;1244;68609;-60
2023/10/10 12:26:30;;;;;;;2.20;1.40;;;;;;;22.88;32.84;97783.78;110145;1244;69859;-60
2023/10/10 12:29:00;;;;;;;2.60;1.50;;;;;;;23.73;32.11;97779.23;110092;1244;60488;-61
2023/10/10 12:31:33;;;;;;;3.30;1.50;;;;;;;24.43;31.05;97782.02;110134;1241;60517;-61
2023/10/10 12:34:03;;;;;;;2.30;1.20;;;;;;;25.09;30.81;97782.63;110081;1241;71409;-59
2023/10/10 12:36:33;;;;;;;3.00;1.60;;;;;;;25.25;29.91;97777.11;110066;1244;69732;-60
2023/10/10 12:39:04;;;;;;;2.10;1.30;;;;;;;24.46;30.19;97778.38;110043;1241;69319;-60
2023/10/10 12:41:45;;;;;;;3.10;1.70;;;;;;;23.52;30.30;97776.55;110040;1241;60531;-61
2023/10/10 12:44:15;;;;;;;2.30;1.50;;;;;;;22.61;31.80;97778.95;110086;1244;60502;-60
2023/10/10 12:46:45;;;;;;;3.10;1.50;;;;;;;22.34;32.10;97774.91;110113;1244;72125;-61
2023/10/10 12:49:14;;;;;;;2.60;1.70;;;;;;;21.95;32.26;97774.61;110090;1241;68609;-60
2023/10/10 12:51:46;;;;;;;2.20;1.50;;;;;;;22.47;32.55;97776.18;110089;1244;69711;-59
2023/10/10 12:54:20;;;;;;;2.00;1.40;;;;;;;22.79;32.34;97778.84;110067;1241;60486;-60
2023/10/10 12:56:54;;;;;;;3.50;1.80;;;;;;;23.36;31.51;97779.61;109827;1245;60496;-60
2023/10/10 12:59:28;;;;;;;2.40;1.40;;;;;;;23.43;31.70;97782.30;110133;1242;72527;-60
2023/10/10 13:02:03;;;;;;;2.30;1.40;;;;;;;23.63;30.59;97781.57;110176;1243;70212;-59
2023/10/10 13:04:32;;;;;;;2.50;1.40;;;;;;;23.91;31.39;97784.27;110134;1241;69720;-59
2023/10/10 13:07:03;;;;;;;3.20;1.40;;;;;;;23.97;30.49;97785.38;110186;1242;60476;-60
2023/10/10 13:09:37;;;;;;;2.50;1.50;;;;;;;24.08;29.81;97782.20;110181;1241;60576;-59
2023/10/10 13:12:06;;;;;;;2.10;1.40;;;;;;;24.03;29.72;97783.39;110213;1242;72830;-59
2023/10/10 13:14:36;;;;;;;1.70;1.00;;;;;;;24.23;30.45;97780.04;110183;1242;69257;-61
2023/10/10 13:20:05;;;;;;;1.90;1.10;;;;;;;25.40;28.26;97774.30;109746;1248;60566;-60
2023/10/10 13:22:34;;;;;;;1.60;1.10;;;;;;;24.81;27.88;97773.56;110194;1242;60486;-61
2023/10/10 13:25:09;;;;;;;2.50;1.40;;;;;;;24.50;28.33;97773.39;110199;1242;72755;-61
2023/10/10 13:27:38;;;;;;;3.60;1.30;;;;;;;24.60;28.74;97774.71;110222;1242;69657;-60
2023/10/10 13:30:08;;;;;;;1.80;1.20;;;;;;;25.05;28.59;97772.23;110214;1242;69074;-61
2023/10/10 13:32:37;;;;;;;1.90;1.00;;;;;;;25.43;28.41;97771.56;110241;1241;60546;-60
2023/10/10 13:35:08;;;;;;;2.20;1.20;;;;;;;25.95;28.58;97768.78;110248;1241;60511;-61
2023/10/10 13:37:41;;;;;;;2.30;1.50;;;;;;;25.70;27.44;97765.83;110209;1242;72767;-62
2023/10/10 13:40:20;;;;;;;2.20;1.40;;;;;;;25.79;28.01;97763.81;110220;1242;69800;-61
2023/10/10 13:42:50;;;;;;;1.80;1.20;;;;;;;26.03;27.15;97766.14;110210;1242;69269;-60
2023/10/10 13:45:22;;;;;;;;;;;;;;;26.29;26.95;97764.76;110217;1243;60582;-60
2023/10/10 13:47:51;;;;;;;2.80;1.40;;;;;;;25.79;27.41;97762.04;110213;1245;60446;-60
2023/10/10 13:50:28;;;;;;;1.70;1.20;;;;;;;26.26;27.95;97764.69;110230;1242;72766;-60
2023/10/10 13:52:59;;;;;;;2.40;1.60;;;;;;;25.92;27.34;97761.13;110206;1243;69240;-60
2023/10/10 13:55:34;;;;;;;3.90;2.00;;;;;;;25.66;27.76;97761.80;110110;1244;69941;-59
2023/10/10 13:58:07;;;;;;;1.90;1.30;;;;;;;25.11;28.28;97759.56;110095;1243;60502;-60
2023/10/10 14:00:39;;;;;;;2.50;1.50;;;;;;;25.11;27.88;97764.63;110083;1243;60537;-61
2023/10/10 14:03:09;;;;;;;2.60;1.40;;;;;;;25.10;28.48;97764.69;110076;1242;72830;-60
2023/10/10 14:05:41;;;;;;;1.90;1.50;;;;;;;25.01;28.34;97761.34;110114;1241;68600;-60
2023/10/10 14:08:17;;;;;;;2.10;1.20;;;;;;;25.07;28.38;97763.89;110103;1244;69903;-60
2023/10/10 14:10:53;;;;;;;1.80;1.20;;;;;;;25.39;28.37;97760.30;110085;1244;60566;-60
2023/10/10 14:13:23;;;;;;;1.60;1.10;;;;;;;25.55;28.27;97754.77;110040;1241;60545;-60
2023/10/10 14:15:56;;;;;;;2.00;1.20;;;;;;;25.80;27.95;97756.04;110087;1241;71527;-60
2023/10/10 14:18:28;;;;;;;1.70;1.30;;;;;;;25.91;27.70;97755.30;110120;1244;68424;-59
2023/10/10 14:21:07;;;;;;;1.90;1.20;;;;;;;25.87;27.68;97752.27;110075;1244;69884;-59
2023/10/10 14:23:41;;;;;;;1.90;1.30;;;;;;;25.46;27.84;97756.42;110034;1245;60554;-59
2023/10/10 14:26:27;;;;;;;2.20;1.30;;;;;;;24.91;28.31;97758.54;110064;1241;60976;-59
2023/10/10 14:29:04;;;;;;;2.00;1.20;;;;;;;25.05;29.05;97762.27;110073;1241;72769;-59
2023/10/10 14:31:42;;;;;;;1.90;1.30;;;;;;;25.25;28.82;97764.58;110103;1243;69853;-59
2023/10/10 14:34:38;;;;;;;2.30;1.60;;;;;;;25.32;28.31;97766.56;110091;1241;69358;-60
2023/10/10 14:37:07;;;;;;;2.10;1.60;;;;;;;24.56;28.88;97771.12;110096;1241;60482;-61
2023/10/10 14:39:59;;;;;;;2.30;1.30;;;;;;;24.71;29.15;97774.23;110105;1244;60558;-61
2023/10/10 14:42:28;;;;;;;1.80;1.10;;;;;;;24.68;29.09;97771.20;110090;1244;71100;-59
2023/10/10 14:44:58;;;;;;;;;;;;;;;24.09;29.42;97771.30;110091;1244;69041;-59
2023/10/10 14:47:28;;;;;;;2.00;1.40;;;;;;;24.24;29.78;97773.08;110102;1244;69885;-60